logo
Search for airport 
image banner adimage banner adimage banner ad
image banner ad

VOHB - Hubballi Airport

Located in Hubballi, India

ICAO - , IATA - HBX

Data provided by Airmate  

General information

Coordinates: N15°21'43" E75°5'4"
Elevation is 2195 feet MSL.
 
View others Airports in Karnataka

Operational data

Special qualification required
Current time UTC:
Current local time:
Weather
TAF: TAF VOHB 152000Z 1521/1606 09005KT 6000 SCT015 TEMPO 1600/1603 5000 BR SCT012
View NOTAMs / SUP AIP / TFR affecting this airport [VIEW]
Communications frequencies: [VIEW]

Runways:

RWY identifierQFULength (ft)Width (ft)SurfaceLDA (ft)
0883°8530148UNK
26263°8530148UNK

Airport contact information

Address: Hubballi India

Satellite view of VOHB